»·PEaware :: N710DS KJAC-KMSO

N710DS :: KJAC-KMSO

FLIGHT INFORMATION

Flight Status: Arrived
Operator: Privately registered:
United States
More flights under this callsign
Pilot: John H. (10732)
Aircraft: Unknown
(B60T)
More flights by this aircraft type
Origin: KJAC Jackson Hole
United States
Destination: KMSO Missoula Intl
United States
More flights between these airports :: More routes between these airports
Route: +ALPIN2 IDA DBS V257 CPN V86 MSO
File this flight plan on PilotEdge
Remarks:
Altitude:
(Current/Filed)
24,000ft
Speed:
(Current/Filed)
305kts
Departed: 10-Jun-19 07:28 AM
Arrived: 10-Jun-19 08:31 AM
Distance/Time
Traveled:
243nm/1:03
Distance/Time
To Go:
Arrived

Flight Plot

Page will automatically refresh every two minutes.

Flight plan parsing failed; only flown route is shown


Map Options




Map Legend


Flown Route
Filed Route
Departure Airport
Arrival Airport
Navaid (VOR, NDB)
Fix

Horizontal Profiles

Position Reports

Time Latitude Longitude Heading Altitude Ground
Speed
10-Jun-19 07:14 43.601561 -110.737464 107 6454ft 0kts
10-Jun-19 07:15 43.601561 -110.737464 107 6454ft 0kts
10-Jun-19 07:16 43.601561 -110.737464 107 6454ft 0kts
10-Jun-19 07:17 43.601561 -110.737463 107 6454ft 0kts
10-Jun-19 07:18 43.601561 -110.737463 107 6454ft 0kts
10-Jun-19 07:20 43.601561 -110.737463 107 6454ft 0kts
10-Jun-19 07:21 43.601561 -110.737463 107 6454ft 0kts
10-Jun-19 07:22 43.601561 -110.737463 107 6454ft 0kts
10-Jun-19 07:23 43.601708 -110.737450 300 6454ft 10kts
10-Jun-19 07:24 43.604578 -110.737366 18 6454ft 14kts
10-Jun-19 07:25 43.608882 -110.735278 18 6454ft 16kts
10-Jun-19 07:26 43.613341 -110.733090 18 6454ft 17kts
10-Jun-19 07:27 43.615111 -110.733097 286 6454ft 0kts
10-Jun-19 07:28 43.589545 -110.746074 194 7608ft 189kts
10-Jun-19 07:29 43.539176 -110.780459 209 10630ft 212kts
10-Jun-19 07:30 43.486434 -110.815950 208 13612ft 202kts
10-Jun-19 07:31 43.440459 -110.846751 226 16565ft 162kts
10-Jun-19 07:32 43.450201 -110.898431 294 19361ft 170kts
10-Jun-19 07:33 43.479719 -110.958655 292 22185ft 204kts
10-Jun-19 07:34 43.513422 -111.027074 290 24570ft 243kts
10-Jun-19 07:35 43.555346 -111.112193 293 24545ft 284kts
10-Jun-19 07:36 43.601143 -111.204084 292 24533ft 294kts
10-Jun-19 07:37 43.647314 -111.297754 292 24530ft 297kts
10-Jun-19 07:38 43.693947 -111.392761 292 24528ft 298kts
10-Jun-19 07:38 43.732410 -111.471583 292 24529ft 294kts
10-Jun-19 07:40 43.785430 -111.580445 291 24520ft 291kts
10-Jun-19 07:41 43.830511 -111.673236 291 24516ft 289kts
10-Jun-19 07:41 43.867683 -111.749949 291 24517ft 288kts
10-Jun-19 07:43 43.919702 -111.857620 291 24508ft 287kts
10-Jun-19 07:43 43.956737 -111.934529 291 24505ft 286kts
10-Jun-19 07:44 44.000921 -112.026542 291 24505ft 286kts
10-Jun-19 07:46 44.052080 -112.133449 291 24502ft 285kts
10-Jun-19 07:46 44.094026 -112.205984 314 24512ft 310kts
10-Jun-19 07:47 44.183014 -112.236220 337 24505ft 333kts
10-Jun-19 07:48 44.273968 -112.262864 338 24504ft 334kts
10-Jun-19 07:49 44.365182 -112.289212 338 24491ft 335kts
10-Jun-19 07:50 44.456348 -112.315540 338 24494ft 335kts
10-Jun-19 07:51 44.547784 -112.342021 338 24490ft 335kts
10-Jun-19 07:52 44.632154 -112.366528 338 24491ft 335kts
10-Jun-19 07:53 44.723544 -112.393157 338 24486ft 336kts
10-Jun-19 07:54 44.815356 -112.419989 338 24488ft 337kts
10-Jun-19 07:55 44.907215 -112.446927 339 24474ft 337kts
10-Jun-19 07:56 44.999247 -112.473997 339 24476ft 337kts
10-Jun-19 07:57 45.090946 -112.501067 340 24459ft 336kts
10-Jun-19 07:58 45.181967 -112.528009 340 24457ft 333kts
10-Jun-19 07:59 45.272868 -112.554735 341 24456ft 333kts
10-Jun-19 08:00 45.364276 -112.577508 342 24453ft 333kts
10-Jun-19 08:01 45.455666 -112.600288 342 24449ft 333kts
10-Jun-19 08:02 45.546965 -112.623458 342 24444ft 333kts
10-Jun-19 08:03 45.637817 -112.646647 342 24438ft 332kts
10-Jun-19 08:04 45.728914 -112.669988 342 24431ft 332kts
10-Jun-19 08:05 45.820259 -112.693461 342 24426ft 332kts
10-Jun-19 08:06 45.911254 -112.716944 342 24352ft 334kts
10-Jun-19 08:07 45.996465 -112.738588 341 22914ft 276kts
10-Jun-19 08:08 46.062302 -112.793741 304 21442ft 281kts
10-Jun-19 08:09 46.112146 -112.869104 308 20076ft 283kts
10-Jun-19 08:10 46.166005 -112.948812 309 18582ft 274kts
10-Jun-19 08:11 46.217734 -113.026281 309 17079ft 260kts
10-Jun-19 08:12 46.267357 -113.100975 310 15578ft 255kts
10-Jun-19 08:13 46.314644 -113.172222 310 15031ft 232kts
10-Jun-19 08:14 46.358731 -113.238958 309 15028ft 228kts
10-Jun-19 08:15 46.402776 -113.305832 309 15030ft 239kts
10-Jun-19 08:16 46.451367 -113.379947 310 15022ft 261kts
10-Jun-19 08:17 46.502008 -113.457235 310 15016ft 264kts
10-Jun-19 08:18 46.552416 -113.534361 310 15014ft 263kts
10-Jun-19 08:19 46.602559 -113.610814 310 13929ft 237kts
10-Jun-19 08:20 46.645452 -113.676676 311 12462ft 223kts
10-Jun-19 08:21 46.688338 -113.742846 311 10997ft 225kts
10-Jun-19 08:22 46.730198 -113.807518 311 9920ft 208kts
10-Jun-19 08:23 46.771023 -113.871099 311 8416ft 217kts
10-Jun-19 08:24 46.810475 -113.934064 311 7347ft 211kts
10-Jun-19 08:25 46.850116 -113.998612 311 6111ft 209kts
10-Jun-19 08:26 46.885510 -114.056173 312 5028ft 165kts
10-Jun-19 08:27 46.904202 -114.102938 272 4012ft 129kts
10-Jun-19 08:28 46.918042 -114.135165 38 4182ft 122kts
10-Jun-19 08:29 46.916060 -114.090264 90 3208ft 61kts
10-Jun-19 08:30 46.914972 -114.086335 131 3208ft 17kts
10-Jun-19 08:31 46.915575 -114.081929 74 3208ft 16kts
10-Jun-19 08:32 46.914803 -114.080449 180 3208ft 0kts

Navigation Log

Ident Type
Flight plan parsing failed, navigation log unavailable